sensor_id;sensor_type;location;lat;lon;timestamp;temperature;humidity
17639;DHT22;8938;53.546;9.954;2022-07-29T00:00:13;19.60;92.00
17639;DHT22;8938;53.546;9.954;2022-07-29T00:02:38;19.50;91.90
17639;DHT22;8938;53.546;9.954;2022-07-29T00:05:04;19.40;92.00
17639;DHT22;8938;53.546;9.954;2022-07-29T00:07:31;19.40;92.00
17639;DHT22;8938;53.546;9.954;2022-07-29T00:09:56;19.50;92.10
17639;DHT22;8938;53.546;9.954;2022-07-29T00:12:23;19.40;92.10
17639;DHT22;8938;53.546;9.954;2022-07-29T00:14:50;19.30;92.10
17639;DHT22;8938;53.546;9.954;2022-07-29T00:17:15;19.40;92.10
17639;DHT22;8938;53.546;9.954;2022-07-29T00:19:41;19.30;92.00
17639;DHT22;8938;53.546;9.954;2022-07-29T00:22:07;19.20;92.10
17639;DHT22;8938;53.546;9.954;2022-07-29T00:24:32;19.20;92.10
17639;DHT22;8938;53.546;9.954;2022-07-29T00:26:58;19.20;92.10
17639;DHT22;8938;53.546;9.954;2022-07-29T00:29:24;19.30;92.10
17639;DHT22;8938;53.546;9.954;2022-07-29T00:31:50;19.30;92.10
17639;DHT22;8938;53.546;9.954;2022-07-29T00:34:15;19.20;92.10
17639;DHT22;8938;53.546;9.954;2022-07-29T00:37:00;19.20;92.00
17639;DHT22;8938;53.546;9.954;2022-07-29T00:39:26;19.20;92.00
17639;DHT22;8938;53.546;9.954;2022-07-29T00:41:51;19.20;92.10
17639;DHT22;8938;53.546;9.954;2022-07-29T00:44:17;19.10;92.00
17639;DHT22;8938;53.546;9.954;2022-07-29T00:46:42;19.10;92.00
17639;DHT22;8938;53.546;9.954;2022-07-29T00:49:08;19.10;92.00
17639;DHT22;8938;53.546;9.954;2022-07-29T00:51:37;19.10;92.00
17639;DHT22;8938;53.546;9.954;2022-07-29T00:54:04;19.00;92.10
17639;DHT22;8938;53.546;9.954;2022-07-29T00:56:30;18.90;92.10
17639;DHT22;8938;53.546;9.954;2022-07-29T00:58:56;18.90;92.10
17639;DHT22;8938;53.546;9.954;2022-07-29T01:01:22;18.90;92.20
17639;DHT22;8938;53.546;9.954;2022-07-29T01:03:47;18.90;92.20
17639;DHT22;8938;53.546;9.954;2022-07-29T01:06:15;18.90;92.20
17639;DHT22;8938;53.546;9.954;2022-07-29T01:08:42;18.90;92.20
17639;DHT22;8938;53.546;9.954;2022-07-29T01:11:08;18.90;92.20
17639;DHT22;8938;53.546;9.954;2022-07-29T01:13:34;18.90;92.20
17639;DHT22;8938;53.546;9.954;2022-07-29T01:16:07;18.80;92.30
17639;DHT22;8938;53.546;9.954;2022-07-29T01:18:39;18.80;92.30
17639;DHT22;8938;53.546;9.954;2022-07-29T01:24:09;18.80;92.40
17639;DHT22;8938;53.546;9.954;2022-07-29T01:27:02;18.80;92.50
17639;DHT22;8938;53.546;9.954;2022-07-29T01:29:45;18.70;92.60
17639;DHT22;8938;53.546;9.954;2022-07-29T01:32:19;18.70;92.70
17639;DHT22;8938;53.546;9.954;2022-07-29T01:43:10;18.70;93.00
17639;DHT22;8938;53.546;9.954;2022-07-29T01:45:48;18.70;93.00
17639;DHT22;8938;53.546;9.954;2022-07-29T01:51:18;18.80;93.10
17639;DHT22;8938;53.546;9.954;2022-07-29T01:53:55;18.80;93.10
17639;DHT22;8938;53.546;9.954;2022-07-29T01:56:23;18.70;93.10
17639;DHT22;8938;53.546;9.954;2022-07-29T01:58:49;18.70;93.50
17639;DHT22;8938;53.546;9.954;2022-07-29T02:01:17;18.70;93.20
17639;DHT22;8938;53.546;9.954;2022-07-29T02:03:46;18.80;93.30
17639;DHT22;8938;53.546;9.954;2022-07-29T02:06:13;18.80;93.20
17639;DHT22;8938;53.546;9.954;2022-07-29T02:08:41;18.90;93.20
17639;DHT22;8938;53.546;9.954;2022-07-29T02:11:08;18.90;93.10
17639;DHT22;8938;53.546;9.954;2022-07-29T02:13:36;18.90;93.20
17639;DHT22;8938;53.546;9.954;2022-07-29T02:16:04;18.80;93.30
17639;DHT22;8938;53.546;9.954;2022-07-29T02:18:32;18.80;93.40
17639;DHT22;8938;53.546;9.954;2022-07-29T02:20:59;18.80;93.50
17639;DHT22;8938;53.546;9.954;2022-07-29T02:23:26;18.80;93.60
17639;DHT22;8938;53.546;9.954;2022-07-29T02:25:56;18.70;93.60
17639;DHT22;8938;53.546;9.954;2022-07-29T02:28:25;18.70;93.60
17639;DHT22;8938;53.546;9.954;2022-07-29T02:30:53;18.80;93.70
17639;DHT22;8938;53.546;9.954;2022-07-29T02:33:39;18.80;93.60
17639;DHT22;8938;53.546;9.954;2022-07-29T02:36:06;18.90;93.60
17639;DHT22;8938;53.546;9.954;2022-07-29T02:38:32;18.80;93.90
17639;DHT22;8938;53.546;9.954;2022-07-29T02:41:38;18.90;93.70
17639;DHT22;8938;53.546;9.954;2022-07-29T02:44:10;18.80;93.80
17639;DHT22;8938;53.546;9.954;2022-07-29T02:46:38;18.90;93.70
17639;DHT22;8938;53.546;9.954;2022-07-29T02:51:55;18.80;93.70
17639;DHT22;8938;53.546;9.954;2022-07-29T02:54:29;18.80;93.70
17639;DHT22;8938;53.546;9.954;2022-07-29T02:56:59;18.90;93.80
17639;DHT22;8938;53.546;9.954;2022-07-29T02:59:27;18.70;93.80
17639;DHT22;8938;53.546;9.954;2022-07-29T03:01:57;18.70;93.90
17639;DHT22;8938;53.546;9.954;2022-07-29T03:04:26;18.80;94.00
17639;DHT22;8938;53.546;9.954;2022-07-29T03:06:53;18.80;93.90
17639;DHT22;8938;53.546;9.954;2022-07-29T03:09:20;18.80;94.00
17639;DHT22;8938;53.546;9.954;2022-07-29T03:11:47;18.80;94.10
17639;DHT22;8938;53.546;9.954;2022-07-29T03:14:13;18.90;94.10
17639;DHT22;8938;53.546;9.954;2022-07-29T03:16:39;18.80;94.00
17639;DHT22;8938;53.546;9.954;2022-07-29T03:19:05;18.70;94.00
17639;DHT22;8938;53.546;9.954;2022-07-29T03:21:31;18.80;94.10
17639;DHT22;8938;53.546;9.954;2022-07-29T03:23:56;18.80;94.20
17639;DHT22;8938;53.546;9.954;2022-07-29T03:26:22;18.80;94.20
17639;DHT22;8938;53.546;9.954;2022-07-29T03:28:48;18.80;94.20
17639;DHT22;8938;53.546;9.954;2022-07-29T03:31:13;18.80;94.20
17639;DHT22;8938;53.546;9.954;2022-07-29T03:33:39;18.80;94.30
17639;DHT22;8938;53.546;9.954;2022-07-29T03:36:04;18.80;94.40
17639;DHT22;8938;53.546;9.954;2022-07-29T03:38:33;18.80;94.40
17639;DHT22;8938;53.546;9.954;2022-07-29T03:41:04;18.80;94.40
17639;DHT22;8938;53.546;9.954;2022-07-29T03:43:32;18.80;94.40
17639;DHT22;8938;53.546;9.954;2022-07-29T03:46:00;18.80;94.40
17639;DHT22;8938;53.546;9.954;2022-07-29T03:48:26;18.80;94.40
17639;DHT22;8938;53.546;9.954;2022-07-29T03:50:54;18.80;94.40
17639;DHT22;8938;53.546;9.954;2022-07-29T03:53:20;18.80;94.50
17639;DHT22;8938;53.546;9.954;2022-07-29T03:55:50;18.90;94.50
17639;DHT22;8938;53.546;9.954;2022-07-29T03:58:18;18.90;94.60
17639;DHT22;8938;53.546;9.954;2022-07-29T04:00:44;18.80;94.50
17639;DHT22;8938;53.546;9.954;2022-07-29T04:03:10;18.90;94.60
17639;DHT22;8938;53.546;9.954;2022-07-29T04:05:36;18.80;94.50
17639;DHT22;8938;53.546;9.954;2022-07-29T04:08:02;18.80;94.60
17639;DHT22;8938;53.546;9.954;2022-07-29T04:10:27;18.80;94.60
17639;DHT22;8938;53.546;9.954;2022-07-29T04:12:53;18.80;94.50
17639;DHT22;8938;53.546;9.954;2022-07-29T04:15:19;18.90;94.60
17639;DHT22;8938;53.546;9.954;2022-07-29T04:17:45;18.90;94.60
17639;DHT22;8938;53.546;9.954;2022-07-29T04:20:11;18.90;94.60
17639;DHT22;8938;53.546;9.954;2022-07-29T04:22:40;18.80;94.60
17639;DHT22;8938;53.546;9.954;2022-07-29T04:25:06;18.90;94.70
17639;DHT22;8938;53.546;9.954;2022-07-29T04:27:32;18.90;94.70
17639;DHT22;8938;53.546;9.954;2022-07-29T04:29:57;19.00;94.70
17639;DHT22;8938;53.546;9.954;2022-07-29T04:32:23;19.00;94.70
17639;DHT22;8938;53.546;9.954;2022-07-29T04:34:49;19.00;94.80
17639;DHT22;8938;53.546;9.954;2022-07-29T04:37:14;19.00;94.80
17639;DHT22;8938;53.546;9.954;2022-07-29T04:39:40;19.10;94.70
17639;DHT22;8938;53.546;9.954;2022-07-29T04:42:06;19.10;94.70
17639;DHT22;8938;53.546;9.954;2022-07-29T04:44:31;19.30;94.60
17639;DHT22;8938;53.546;9.954;2022-07-29T04:46:57;19.40;94.60
17639;DHT22;8938;53.546;9.954;2022-07-29T04:49:23;19.50;94.50
17639;DHT22;8938;53.546;9.954;2022-07-29T04:51:48;19.50;94.40
17639;DHT22;8938;53.546;9.954;2022-07-29T04:54:14;19.60;94.40
17639;DHT22;8938;53.546;9.954;2022-07-29T04:56:39;19.60;94.40
17639;DHT22;8938;53.546;9.954;2022-07-29T04:59:05;19.70;94.30
17639;DHT22;8938;53.546;9.954;2022-07-29T05:01:31;19.60;94.30
17639;DHT22;8938;53.546;9.954;2022-07-29T05:03:56;19.60;94.20
17639;DHT22;8938;53.546;9.954;2022-07-29T05:06:22;19.60;94.20
17639;DHT22;8938;53.546;9.954;2022-07-29T05:08:47;19.60;94.30
17639;DHT22;8938;53.546;9.954;2022-07-29T05:11:13;19.50;94.10
17639;DHT22;8938;53.546;9.954;2022-07-29T05:13:39;19.50;94.30
17639;DHT22;8938;53.546;9.954;2022-07-29T05:16:05;19.50;94.30
17639;DHT22;8938;53.546;9.954;2022-07-29T05:18:30;19.60;94.30
17639;DHT22;8938;53.546;9.954;2022-07-29T05:20:56;19.60;94.40
17639;DHT22;8938;53.546;9.954;2022-07-29T05:23:21;19.70;94.40
17639;DHT22;8938;53.546;9.954;2022-07-29T05:25:47;19.60;94.20
17639;DHT22;8938;53.546;9.954;2022-07-29T05:28:12;19.80;94.30
17639;DHT22;8938;53.546;9.954;2022-07-29T05:30:38;19.90;94.30
17639;DHT22;8938;53.546;9.954;2022-07-29T05:33:03;20.00;94.30
17639;DHT22;8938;53.546;9.954;2022-07-29T05:35:29;20.10;94.20
17639;DHT22;8938;53.546;9.954;2022-07-29T05:37:54;20.30;94.10
17639;DHT22;8938;53.546;9.954;2022-07-29T05:40:20;20.20;94.00
17639;DHT22;8938;53.546;9.954;2022-07-29T05:42:46;20.20;94.00
17639;DHT22;8938;53.546;9.954;2022-07-29T05:45:11;20.20;94.00
17639;DHT22;8938;53.546;9.954;2022-07-29T05:47:37;20.20;94.00
17639;DHT22;8938;53.546;9.954;2022-07-29T05:50:03;20.20;93.90
17639;DHT22;8938;53.546;9.954;2022-07-29T05:52:29;20.20;93.90
17639;DHT22;8938;53.546;9.954;2022-07-29T05:54:55;20.20;93.90
17639;DHT22;8938;53.546;9.954;2022-07-29T05:57:23;20.30;94.00
17639;DHT22;8938;53.546;9.954;2022-07-29T05:59:49;20.40;94.00
17639;DHT22;8938;53.546;9.954;2022-07-29T06:02:15;20.50;93.90
17639;DHT22;8938;53.546;9.954;2022-07-29T06:04:41;20.70;93.90
17639;DHT22;8938;53.546;9.954;2022-07-29T06:07:07;20.60;93.60
17639;DHT22;8938;53.546;9.954;2022-07-29T06:09:33;20.70;93.70
17639;DHT22;8938;53.546;9.954;2022-07-29T06:11:59;20.70;93.70
17639;DHT22;8938;53.546;9.954;2022-07-29T06:14:25;20.90;93.80
17639;DHT22;8938;53.546;9.954;2022-07-29T06:16:53;21.00;93.80
17639;DHT22;8938;53.546;9.954;2022-07-29T06:19:19;21.10;93.70
17639;DHT22;8938;53.546;9.954;2022-07-29T06:21:45;21.20;93.70
17639;DHT22;8938;53.546;9.954;2022-07-29T06:24:12;21.30;93.60
17639;DHT22;8938;53.546;9.954;2022-07-29T06:26:38;21.30;93.50
17639;DHT22;8938;53.546;9.954;2022-07-29T06:29:04;21.20;93.20
17639;DHT22;8938;53.546;9.954;2022-07-29T06:31:30;21.20;93.40
17639;DHT22;8938;53.546;9.954;2022-07-29T06:33:55;21.20;93.50
17639;DHT22;8938;53.546;9.954;2022-07-29T06:36:21;21.30;93.30
17639;DHT22;8938;53.546;9.954;2022-07-29T06:38:46;21.30;93.30
17639;DHT22;8938;53.546;9.954;2022-07-29T06:41:12;21.50;93.50
17639;DHT22;8938;53.546;9.954;2022-07-29T06:43:42;21.60;93.40
17639;DHT22;8938;53.546;9.954;2022-07-29T06:46:10;21.60;93.40
17639;DHT22;8938;53.546;9.954;2022-07-29T06:48:37;21.70;93.40
17639;DHT22;8938;53.546;9.954;2022-07-29T06:51:04;21.90;93.30
17639;DHT22;8938;53.546;9.954;2022-07-29T06:53:30;21.90;93.20
17639;DHT22;8938;53.546;9.954;2022-07-29T06:55:57;21.90;93.00
17639;DHT22;8938;53.546;9.954;2022-07-29T06:58:24;21.90;93.00
17639;DHT22;8938;53.546;9.954;2022-07-29T07:00:49;22.10;93.00
17639;DHT22;8938;53.546;9.954;2022-07-29T07:03:16;22.10;92.90
17639;DHT22;8938;53.546;9.954;2022-07-29T07:05:42;22.10;93.00
17639;DHT22;8938;53.546;9.954;2022-07-29T07:08:08;22.20;92.90
17639;DHT22;8938;53.546;9.954;2022-07-29T07:10:33;22.30;92.90
17639;DHT22;8938;53.546;9.954;2022-07-29T07:12:59;22.30;92.60
17639;DHT22;8938;53.546;9.954;2022-07-29T07:15:25;22.40;92.60
17639;DHT22;8938;53.546;9.954;2022-07-29T07:17:51;22.50;92.50
17639;DHT22;8938;53.546;9.954;2022-07-29T07:20:17;22.40;92.50
17639;DHT22;8938;53.546;9.954;2022-07-29T07:22:43;22.40;92.50
17639;DHT22;8938;53.546;9.954;2022-07-29T07:25:09;22.50;92.50
17639;DHT22;8938;53.546;9.954;2022-07-29T07:27:35;22.50;92.40
17639;DHT22;8938;53.546;9.954;2022-07-29T07:30:03;22.60;92.30
17639;DHT22;8938;53.546;9.954;2022-07-29T07:32:29;22.50;92.30
17639;DHT22;8938;53.546;9.954;2022-07-29T07:34:55;22.50;92.20
17639;DHT22;8938;53.546;9.954;2022-07-29T07:37:20;22.60;92.40
17639;DHT22;8938;53.546;9.954;2022-07-29T07:39:46;22.70;92.60
17639;DHT22;8938;53.546;9.954;2022-07-29T07:42:12;22.90;92.10
17639;DHT22;8938;53.546;9.954;2022-07-29T07:44:39;22.70;92.10
17639;DHT22;8938;53.546;9.954;2022-07-29T07:47:05;22.60;92.00
17639;DHT22;8938;53.546;9.954;2022-07-29T07:49:31;22.50;92.20
17639;DHT22;8938;53.546;9.954;2022-07-29T07:51:56;22.50;92.30
17639;DHT22;8938;53.546;9.954;2022-07-29T07:54:22;22.60;92.30
17639;DHT22;8938;53.546;9.954;2022-07-29T07:56:48;22.70;92.20
17639;DHT22;8938;53.546;9.954;2022-07-29T07:59:16;22.70;92.00
17639;DHT22;8938;53.546;9.954;2022-07-29T08:01:42;22.90;92.10
17639;DHT22;8938;53.546;9.954;2022-07-29T08:04:08;23.00;92.20
17639;DHT22;8938;53.546;9.954;2022-07-29T08:06:34;23.10;91.90
17639;DHT22;8938;53.546;9.954;2022-07-29T08:09:02;23.10;91.70
17639;DHT22;8938;53.546;9.954;2022-07-29T08:11:27;23.10;91.70
17639;DHT22;8938;53.546;9.954;2022-07-29T08:13:54;23.00;91.50
17639;DHT22;8938;53.546;9.954;2022-07-29T08:16:19;23.00;91.60
17639;DHT22;8938;53.546;9.954;2022-07-29T08:18:45;23.10;91.70
17639;DHT22;8938;53.546;9.954;2022-07-29T08:21:12;23.20;91.50
17639;DHT22;8938;53.546;9.954;2022-07-29T08:23:38;23.40;91.60
17639;DHT22;8938;53.546;9.954;2022-07-29T08:26:08;23.70;91.60
17639;DHT22;8938;53.546;9.954;2022-07-29T08:28:40;23.80;91.10
17639;DHT22;8938;53.546;9.954;2022-07-29T08:31:06;23.90;91.20
17639;DHT22;8938;53.546;9.954;2022-07-29T08:33:32;24.20;91.10
17639;DHT22;8938;53.546;9.954;2022-07-29T08:35:58;24.30;91.00
17639;DHT22;8938;53.546;9.954;2022-07-29T08:38:24;24.40;90.40
17639;DHT22;8938;53.546;9.954;2022-07-29T08:40:51;24.40;90.40
17639;DHT22;8938;53.546;9.954;2022-07-29T08:43:18;24.30;90.30
17639;DHT22;8938;53.546;9.954;2022-07-29T08:45:46;24.50;90.80
17639;DHT22;8938;53.546;9.954;2022-07-29T08:48:17;24.50;90.40
17639;DHT22;8938;53.546;9.954;2022-07-29T08:50:44;24.50;90.30
17639;DHT22;8938;53.546;9.954;2022-07-29T08:53:11;24.60;90.40
17639;DHT22;8938;53.546;9.954;2022-07-29T08:55:43;24.60;90.00
17639;DHT22;8938;53.546;9.954;2022-07-29T08:58:09;24.60;89.50
17639;DHT22;8938;53.546;9.954;2022-07-29T09:00:37;24.60;89.80
17639;DHT22;8938;53.546;9.954;2022-07-29T09:03:06;24.80;90.00
17639;DHT22;8938;53.546;9.954;2022-07-29T09:05:34;25.00;89.10
17639;DHT22;8938;53.546;9.954;2022-07-29T09:08:00;25.00;88.80
17639;DHT22;8938;53.546;9.954;2022-07-29T09:10:26;25.20;89.10
17639;DHT22;8938;53.546;9.954;2022-07-29T09:12:54;25.30;88.20
17639;DHT22;8938;53.546;9.954;2022-07-29T09:15:20;25.30;88.20
17639;DHT22;8938;53.546;9.954;2022-07-29T09:17:48;25.50;87.60
17639;DHT22;8938;53.546;9.954;2022-07-29T09:20:19;25.70;87.20
17639;DHT22;8938;53.546;9.954;2022-07-29T09:22:46;25.80;86.50
17639;DHT22;8938;53.546;9.954;2022-07-29T09:25:35;25.80;86.20
17639;DHT22;8938;53.546;9.954;2022-07-29T09:28:13;25.80;86.70
17639;DHT22;8938;53.546;9.954;2022-07-29T09:30:58;25.80;86.20
17639;DHT22;8938;53.546;9.954;2022-07-29T09:33:32;25.70;85.90
17639;DHT22;8938;53.546;9.954;2022-07-29T09:36:04;25.60;85.60
17639;DHT22;8938;53.546;9.954;2022-07-29T09:38:30;25.60;86.10
17639;DHT22;8938;53.546;9.954;2022-07-29T09:41:01;25.80;85.90
17639;DHT22;8938;53.546;9.954;2022-07-29T09:43:27;25.90;85.90
17639;DHT22;8938;53.546;9.954;2022-07-29T09:45:52;25.90;85.10
17639;DHT22;8938;53.546;9.954;2022-07-29T09:48:21;26.10;85.90
17639;DHT22;8938;53.546;9.954;2022-07-29T09:50:48;26.10;84.30
17639;DHT22;8938;53.546;9.954;2022-07-29T09:53:35;26.30;83.00
17639;DHT22;8938;53.546;9.954;2022-07-29T09:56:02;26.30;83.00
17639;DHT22;8938;53.546;9.954;2022-07-29T09:58:28;26.50;82.80
17639;DHT22;8938;53.546;9.954;2022-07-29T10:00:55;26.60;83.00
17639;DHT22;8938;53.546;9.954;2022-07-29T10:03:21;26.60;82.50
17639;DHT22;8938;53.546;9.954;2022-07-29T10:06:08;26.70;82.90
17639;DHT22;8938;53.546;9.954;2022-07-29T10:08:35;26.70;82.30
17639;DHT22;8938;53.546;9.954;2022-07-29T10:11:14;26.80;81.80
17639;DHT22;8938;53.546;9.954;2022-07-29T10:13:41;26.90;81.60
17639;DHT22;8938;53.546;9.954;2022-07-29T10:16:07;26.90;81.50
17639;DHT22;8938;53.546;9.954;2022-07-29T10:18:33;27.00;81.30
17639;DHT22;8938;53.546;9.954;2022-07-29T10:21:00;27.00;81.50
17639;DHT22;8938;53.546;9.954;2022-07-29T10:23:30;27.00;81.30
17639;DHT22;8938;53.546;9.954;2022-07-29T10:25:56;27.00;80.30
17639;DHT22;8938;53.546;9.954;2022-07-29T10:28:22;26.90;79.70
17639;DHT22;8938;53.546;9.954;2022-07-29T10:30:50;27.00;80.20
17639;DHT22;8938;53.546;9.954;2022-07-29T10:34:06;27.10;80.50
17639;DHT22;8938;53.546;9.954;2022-07-29T10:44:40;27.10;78.40
17639;DHT22;8938;53.546;9.954;2022-07-29T10:47:07;27.20;78.80
17639;DHT22;8938;53.546;9.954;2022-07-29T10:49:33;27.20;78.40
17639;DHT22;8938;53.546;9.954;2022-07-29T10:52:03;27.40;78.30
17639;DHT22;8938;53.546;9.954;2022-07-29T10:54:46;27.50;78.00
17639;DHT22;8938;53.546;9.954;2022-07-29T10:57:17;27.40;77.20
17639;DHT22;8938;53.546;9.954;2022-07-29T10:59:44;27.60;77.70
17639;DHT22;8938;53.546;9.954;2022-07-29T11:05:03;27.90;76.80
17639;DHT22;8938;53.546;9.954;2022-07-29T11:07:29;28.10;75.30
17639;DHT22;8938;53.546;9.954;2022-07-29T11:15:02;28.50;74.90
17639;DHT22;8938;53.546;9.954;2022-07-29T11:17:28;28.50;75.20
17639;DHT22;8938;53.546;9.954;2022-07-29T11:23:14;28.40;75.30
17639;DHT22;8938;53.546;9.954;2022-07-29T11:25:42;28.40;74.70
17639;DHT22;8938;53.546;9.954;2022-07-29T11:28:18;28.40;74.50
17639;DHT22;8938;53.546;9.954;2022-07-29T11:30:53;28.50;74.00
17639;DHT22;8938;53.546;9.954;2022-07-29T11:36:12;28.60;74.80
17639;DHT22;8938;53.546;9.954;2022-07-29T11:38:38;28.70;74.50
17639;DHT22;8938;53.546;9.954;2022-07-29T11:41:23;28.80;73.50
17639;DHT22;8938;53.546;9.954;2022-07-29T11:43:57;28.60;73.70
17639;DHT22;8938;53.546;9.954;2022-07-29T11:46:49;28.50;74.00
17639;DHT22;8938;53.546;9.954;2022-07-29T11:49:22;28.70;73.80
17639;DHT22;8938;53.546;9.954;2022-07-29T11:51:53;28.70;73.70
17639;DHT22;8938;53.546;9.954;2022-07-29T11:54:30;28.80;74.40
17639;DHT22;8938;53.546;9.954;2022-07-29T11:56:58;28.90;74.00
17639;DHT22;8938;53.546;9.954;2022-07-29T11:59:24;28.90;73.40
17639;DHT22;8938;53.546;9.954;2022-07-29T12:01:57;29.00;72.70
17639;DHT22;8938;53.546;9.954;2022-07-29T12:04:23;29.00;71.40
17639;DHT22;8938;53.546;9.954;2022-07-29T12:06:53;29.10;71.30
17639;DHT22;8938;53.546;9.954;2022-07-29T12:09:20;29.30;71.80
17639;DHT22;8938;53.546;9.954;2022-07-29T12:11:47;29.40;71.70
17639;DHT22;8938;53.546;9.954;2022-07-29T12:14:29;29.50;70.30
17639;DHT22;8938;53.546;9.954;2022-07-29T12:16:56;29.40;70.80
17639;DHT22;8938;53.546;9.954;2022-07-29T12:19:21;29.30;70.10
17639;DHT22;8938;53.546;9.954;2022-07-29T12:21:52;29.10;70.30
17639;DHT22;8938;53.546;9.954;2022-07-29T12:24:18;29.10;70.70
17639;DHT22;8938;53.546;9.954;2022-07-29T12:26:58;29.10;70.60
17639;DHT22;8938;53.546;9.954;2022-07-29T12:29:25;29.20;70.70
17639;DHT22;8938;53.546;9.954;2022-07-29T12:31:53;29.50;70.40
17639;DHT22;8938;53.546;9.954;2022-07-29T12:34:23;29.70;70.30
17639;DHT22;8938;53.546;9.954;2022-07-29T12:36:52;29.80;69.60
17639;DHT22;8938;53.546;9.954;2022-07-29T12:39:18;29.80;68.80
17639;DHT22;8938;53.546;9.954;2022-07-29T12:41:44;29.80;69.70
17639;DHT22;8938;53.546;9.954;2022-07-29T12:44:10;29.80;70.10
17639;DHT22;8938;53.546;9.954;2022-07-29T12:46:36;29.80;69.80
17639;DHT22;8938;53.546;9.954;2022-07-29T12:49:02;29.60;70.00
17639;DHT22;8938;53.546;9.954;2022-07-29T12:51:37;29.50;69.80
17639;DHT22;8938;53.546;9.954;2022-07-29T12:54:09;29.50;69.80
17639;DHT22;8938;53.546;9.954;2022-07-29T12:56:42;29.60;69.40
17639;DHT22;8938;53.546;9.954;2022-07-29T12:59:26;29.70;69.40
17639;DHT22;8938;53.546;9.954;2022-07-29T13:01:52;29.90;69.80
17639;DHT22;8938;53.546;9.954;2022-07-29T13:04:29;30.10;69.10
17639;DHT22;8938;53.546;9.954;2022-07-29T13:07:02;30.20;68.70
17639;DHT22;8938;53.546;9.954;2022-07-29T13:09:44;30.40;67.60
17639;DHT22;8938;53.546;9.954;2022-07-29T13:12:14;30.30;66.40
17639;DHT22;8938;53.546;9.954;2022-07-29T13:14:42;30.50;66.50
17639;DHT22;8938;53.546;9.954;2022-07-29T13:17:13;30.50;66.50
17639;DHT22;8938;53.546;9.954;2022-07-29T13:19:46;30.50;65.30
17639;DHT22;8938;53.546;9.954;2022-07-29T13:22:13;30.50;66.10
17639;DHT22;8938;53.546;9.954;2022-07-29T13:24:47;30.50;65.70
17639;DHT22;8938;53.546;9.954;2022-07-29T13:27:15;30.60;65.60
17639;DHT22;8938;53.546;9.954;2022-07-29T13:29:41;30.70;65.60
17639;DHT22;8938;53.546;9.954;2022-07-29T13:32:06;31.20;64.80
17639;DHT22;8938;53.546;9.954;2022-07-29T13:34:32;31.40;63.50
17639;DHT22;8938;53.546;9.954;2022-07-29T13:36:58;31.20;62.50
17639;DHT22;8938;53.546;9.954;2022-07-29T13:39:23;31.00;63.10
17639;DHT22;8938;53.546;9.954;2022-07-29T13:41:49;31.00;62.60
17639;DHT22;8938;53.546;9.954;2022-07-29T13:44:14;31.00;62.70
17639;DHT22;8938;53.546;9.954;2022-07-29T13:46:40;30.90;62.60
17639;DHT22;8938;53.546;9.954;2022-07-29T13:49:05;30.70;62.20
17639;DHT22;8938;53.546;9.954;2022-07-29T13:51:31;30.30;66.00
17639;DHT22;8938;53.546;9.954;2022-07-29T13:53:56;29.90;70.10
17639;DHT22;8938;53.546;9.954;2022-07-29T13:56:22;29.60;71.60
17639;DHT22;8938;53.546;9.954;2022-07-29T13:58:47;29.40;72.90
17639;DHT22;8938;53.546;9.954;2022-07-29T14:01:13;29.30;73.90
17639;DHT22;8938;53.546;9.954;2022-07-29T14:03:39;29.20;74.60
17639;DHT22;8938;53.546;9.954;2022-07-29T14:06:06;29.10;74.80
17639;DHT22;8938;53.546;9.954;2022-07-29T14:08:32;29.10;75.00
17639;DHT22;8938;53.546;9.954;2022-07-29T14:10:58;29.10;75.50
17639;DHT22;8938;53.546;9.954;2022-07-29T14:13:23;28.80;75.30
17639;DHT22;8938;53.546;9.954;2022-07-29T14:15:49;28.70;76.50
17639;DHT22;8938;53.546;9.954;2022-07-29T14:18:14;28.60;76.20
17639;DHT22;8938;53.546;9.954;2022-07-29T14:20:40;28.60;76.40
17639;DHT22;8938;53.546;9.954;2022-07-29T14:23:05;28.40;76.70
17639;DHT22;8938;53.546;9.954;2022-07-29T14:25:31;28.20;76.90
17639;DHT22;8938;53.546;9.954;2022-07-29T14:27:56;28.20;77.40
17639;DHT22;8938;53.546;9.954;2022-07-29T14:30:22;28.10;77.50
17639;DHT22;8938;53.546;9.954;2022-07-29T14:32:47;28.00;77.70
17639;DHT22;8938;53.546;9.954;2022-07-29T14:35:13;27.90;78.00
17639;DHT22;8938;53.546;9.954;2022-07-29T14:37:40;27.80;78.40
17639;DHT22;8938;53.546;9.954;2022-07-29T14:40:06;27.80;78.30
17639;DHT22;8938;53.546;9.954;2022-07-29T14:42:32;27.80;78.20
17639;DHT22;8938;53.546;9.954;2022-07-29T14:44:57;27.90;78.30
17639;DHT22;8938;53.546;9.954;2022-07-29T14:47:23;28.00;78.00
17639;DHT22;8938;53.546;9.954;2022-07-29T14:49:49;28.00;78.20
17639;DHT22;8938;53.546;9.954;2022-07-29T14:52:15;28.20;78.90
17639;DHT22;8938;53.546;9.954;2022-07-29T14:54:40;28.40;77.90
17639;DHT22;8938;53.546;9.954;2022-07-29T14:57:06;28.40;77.60
17639;DHT22;8938;53.546;9.954;2022-07-29T14:59:32;28.40;77.30
17639;DHT22;8938;53.546;9.954;2022-07-29T15:01:57;28.30;77.80
17639;DHT22;8938;53.546;9.954;2022-07-29T15:04:23;28.30;78.00
17639;DHT22;8938;53.546;9.954;2022-07-29T15:06:49;28.40;78.30
17639;DHT22;8938;53.546;9.954;2022-07-29T15:09:14;28.40;78.10
17639;DHT22;8938;53.546;9.954;2022-07-29T15:11:40;28.30;78.10
17639;DHT22;8938;53.546;9.954;2022-07-29T15:14:06;28.30;78.40
17639;DHT22;8938;53.546;9.954;2022-07-29T15:16:32;28.30;78.80
17639;DHT22;8938;53.546;9.954;2022-07-29T15:18:58;28.20;79.00
17639;DHT22;8938;53.546;9.954;2022-07-29T15:21:24;28.00;79.20
17639;DHT22;8938;53.546;9.954;2022-07-29T15:23:49;27.90;79.40
17639;DHT22;8938;53.546;9.954;2022-07-29T15:26:15;27.80;79.50
17639;DHT22;8938;53.546;9.954;2022-07-29T15:28:41;27.80;79.50
17639;DHT22;8938;53.546;9.954;2022-07-29T15:31:06;27.80;79.60
17639;DHT22;8938;53.546;9.954;2022-07-29T15:33:32;27.90;79.50
17639;DHT22;8938;53.546;9.954;2022-07-29T15:35:57;28.00;79.60
17639;DHT22;8938;53.546;9.954;2022-07-29T15:38:23;28.00;79.70
17639;DHT22;8938;53.546;9.954;2022-07-29T15:40:49;28.00;79.70
17639;DHT22;8938;53.546;9.954;2022-07-29T15:43:14;28.00;79.40
17639;DHT22;8938;53.546;9.954;2022-07-29T15:45:42;28.00;79.20
17639;DHT22;8938;53.546;9.954;2022-07-29T15:48:30;28.00;79.20
17639;DHT22;8938;53.546;9.954;2022-07-29T15:50:57;28.00;79.00
17639;DHT22;8938;53.546;9.954;2022-07-29T15:53:23;27.90;79.00
17639;DHT22;8938;53.546;9.954;2022-07-29T15:55:48;27.80;79.00
17639;DHT22;8938;53.546;9.954;2022-07-29T15:58:14;27.80;79.40
17639;DHT22;8938;53.546;9.954;2022-07-29T16:00:39;27.70;79.70
17639;DHT22;8938;53.546;9.954;2022-07-29T16:03:05;27.70;80.00
17639;DHT22;8938;53.546;9.954;2022-07-29T16:05:30;27.60;80.00
17639;DHT22;8938;53.546;9.954;2022-07-29T16:07:56;27.60;80.00
17639;DHT22;8938;53.546;9.954;2022-07-29T16:10:23;27.60;79.90
17639;DHT22;8938;53.546;9.954;2022-07-29T16:12:49;27.40;80.20
17639;DHT22;8938;53.546;9.954;2022-07-29T16:15:14;27.40;80.60
17639;DHT22;8938;53.546;9.954;2022-07-29T16:17:40;27.50;80.80
17639;DHT22;8938;53.546;9.954;2022-07-29T16:20:06;27.50;81.00
17639;DHT22;8938;53.546;9.954;2022-07-29T16:22:32;27.70;81.20
17639;DHT22;8938;53.546;9.954;2022-07-29T16:24:57;27.80;81.10
17639;DHT22;8938;53.546;9.954;2022-07-29T16:27:23;27.70;80.40